Time;durP1;ratioP1;P1;durP2;ratioP2;P2;SDS_P1;SDS_P2;PMS_P1;PMS_P2;Temp;Humidity;BMP_temperature;BMP_pressure;BME280_temperature;BME280_humidity;BME280_pressure;Samples;Min_cycle;Max_cycle;Signal;HPM_P1;HPM_P2
2021/01/18 00:02:15;;;;;;;7.63;6.83;;;1.90;99.90;;;;;;5076705;28;20183;-74
2021/01/18 00:04:41;;;;;;;8.77;6.53;;;1.80;99.90;;;;;;5088505;28;20170;-74
2021/01/18 00:07:07;;;;;;;8.43;7.37;;;1.80;99.90;;;;;;5081694;28;20199;-75
2021/01/18 00:09:33;;;;;;;7.80;7.03;;;1.90;99.90;;;;;;5089681;28;20183;-75
2021/01/18 00:11:59;;;;;;;8.27;7.47;;;1.90;99.90;;;;;;5086882;28;20191;-74
2021/01/18 00:14:25;;;;;;;8.37;6.57;;;2.00;99.90;;;;;;5080446;28;20187;-75
2021/01/18 00:16:50;;;;;;;8.43;6.70;;;2.00;99.90;;;;;;5078472;28;20210;-74
2021/01/18 00:19:16;;;;;;;8.27;6.63;;;2.00;99.90;;;;;;5075263;28;20289;-74
2021/01/18 00:21:45;;;;;;;7.37;6.63;;;2.00;99.90;;;;;;5079759;28;20264;-74
2021/01/18 00:24:11;;;;;;;8.77;7.00;;;2.00;99.90;;;;;;5076983;28;20224;-75
2021/01/18 00:26:37;;;;;;;8.33;6.97;;;2.00;99.90;;;;;;5079566;28;20273;-75
2021/01/18 00:29:03;;;;;;;7.60;6.73;;;2.00;99.90;;;;;;5076381;28;20602;-74
2021/01/18 00:31:29;;;;;;;7.63;6.90;;;2.00;99.90;;;;;;5081074;28;20175;-75
2021/01/18 00:33:54;;;;;;;7.80;7.00;;;2.00;99.90;;;;;;5084669;28;20210;-74
2021/01/18 00:36:20;;;;;;;7.80;6.30;;;2.00;99.90;;;;;;5086671;28;20250;-74
2021/01/18 00:38:45;;;;;;;7.23;6.40;;;2.00;99.90;;;;;;5078155;28;20730;-75
2021/01/18 00:41:11;;;;;;;7.27;6.50;;;2.10;99.90;;;;;;5078455;28;20230;-74
2021/01/18 00:43:36;;;;;;;7.60;6.90;;;2.10;99.90;;;;;;5077518;28;20235;-74
2021/01/18 00:46:02;;;;;;;9.93;7.77;;;2.10;99.90;;;;;;5083696;28;20269;-74
2021/01/18 00:48:28;;;;;;;11.63;7.30;;;2.10;99.90;;;;;;5089289;28;20205;-74
2021/01/18 00:50:53;;;;;;;8.10;6.63;;;2.10;99.90;;;;;;5079914;28;20597;-74
2021/01/18 00:53:19;;;;;;;7.60;6.80;;;2.10;99.90;;;;;;5091629;28;20242;-75
2021/01/18 00:55:45;;;;;;;7.47;6.77;;;2.00;99.90;;;;;;5082741;28;20181;-74
2021/01/18 00:58:12;;;;;;;8.17;6.53;;;2.00;99.90;;;;;;5086999;28;20208;-74
2021/01/18 01:00:39;;;;;;;9.87;6.93;;;2.00;99.90;;;;;;5078068;28;20264;-75
2021/01/18 01:03:05;;;;;;;8.13;6.97;;;1.90;99.90;;;;;;5078717;28;20268;-74
2021/01/18 01:05:30;;;;;;;8.87;6.53;;;1.90;99.90;;;;;;5082081;28;20183;-75
2021/01/18 01:07:58;;;;;;;7.43;6.57;;;1.90;99.90;;;;;;5078327;28;20206;-75
2021/01/18 01:10:33;;;;;;;9.43;7.27;;;1.80;99.90;;;;;;5076033;28;20532;-75
2021/01/18 01:13:06;;;;;;;7.67;6.80;;;1.80;99.90;;;;;;5078621;28;20200;-76
2021/01/18 01:15:33;;;;;;;12.57;7.27;;;1.70;99.90;;;;;;5075443;28;20183;-75
2021/01/18 01:17:59;;;;;;;9.30;7.43;;;1.60;99.90;;;;;;5076826;28;20279;-74
2021/01/18 01:20:26;;;;;;;7.70;6.90;;;1.70;99.90;;;;;;5083046;28;20260;-75
2021/01/18 01:22:52;;;;;;;10.67;7.83;;;1.60;99.90;;;;;;5087376;28;20277;-75
2021/01/18 01:25:20;;;;;;;7.80;6.83;;;1.60;99.90;;;;;;5084108;28;20193;-75
2021/01/18 01:27:46;;;;;;;10.23;8.33;;;1.60;99.90;;;;;;5079362;28;20270;-75
2021/01/18 01:30:15;;;;;;;9.03;8.13;;;1.60;99.90;;;;;;5078877;28;20665;-75
2021/01/18 01:32:42;;;;;;;9.03;8.03;;;1.50;99.90;;;;;;5076366;28;20692;-75
2021/01/18 01:35:10;;;;;;;10.83;8.43;;;1.50;99.90;;;;;;5085969;28;20684;-75
2021/01/18 01:37:37;;;;;;;8.73;7.50;;;1.50;99.90;;;;;;5078054;28;20211;-74
2021/01/18 01:40:13;;;;;;;10.77;8.33;;;1.40;99.90;;;;;;5082356;28;20286;-75
2021/01/18 01:42:39;;;;;;;9.00;7.77;;;1.40;99.90;;;;;;5075236;28;20264;-75
2021/01/18 01:45:07;;;;;;;9.03;7.60;;;1.40;99.90;;;;;;5085709;28;20258;-75
2021/01/18 01:47:54;;;;;;;7.97;7.00;;;1.50;99.90;;;;;;5078679;28;20196;-75
2021/01/18 01:50:28;;;;;;;8.53;7.10;;;1.50;99.90;;;;;;5078993;28;20883;-75
2021/01/18 01:52:57;;;;;;;6.90;6.20;;;1.60;99.90;;;;;;5083388;28;20292;-75
2021/01/18 01:55:30;;;;;;;7.20;6.13;;;1.70;99.90;;;;;;5082829;28;20182;-75
2021/01/18 01:57:58;;;;;;;6.20;5.60;;;1.70;99.90;;;;;;5075973;28;20202;-75
2021/01/18 02:00:36;;;;;;;6.27;4.93;;;1.80;99.90;;;;;;5075413;28;20183;-75
2021/01/18 02:03:04;;;;;;;5.73;4.87;;;1.80;99.90;;;;;;5080324;28;20183;-75
2021/01/18 02:05:30;;;;;;;4.97;4.47;;;1.80;99.90;;;;;;5077211;28;20197;-75
2021/01/18 02:07:59;;;;;;;4.80;3.90;;;1.90;99.90;;;;;;5073321;28;20199;-75
2021/01/18 02:10:25;;;;;;;5.37;4.60;;;1.90;99.90;;;;;;5078688;28;20553;-74
2021/01/18 02:12:51;;;;;;;6.43;4.40;;;2.00;99.90;;;;;;5081725;28;20172;-74
2021/01/18 02:15:30;;;;;;;5.00;4.57;;;2.10;99.90;;;;;;5078163;28;20712;-75
2021/01/18 02:18:25;;;;;;;9.63;4.20;;;2.00;99.90;;;;;;5073806;28;20202;-76
2021/01/18 02:21:28;;;;;;;5.37;4.27;;;2.10;99.90;;;;;;5074418;28;20182;-75
2021/01/18 02:24:11;;;;;;;6.00;4.43;;;2.00;99.90;;;;;;5075019;28;20202;-75
2021/01/18 02:27:00;;;;;;;6.70;4.63;;;2.10;99.90;;;;;;5079408;28;20231;-75
2021/01/18 02:29:50;;;;;;;4.67;4.27;;;2.00;99.90;;;;;;5077431;28;20183;-75
2021/01/18 02:32:40;;;;;;;5.40;4.27;;;2.10;99.90;;;;;;5071244;28;20173;-74
2021/01/18 02:35:12;;;;;;;4.57;4.00;;;2.10;99.90;;;;;;5087055;28;20187;-75
2021/01/18 02:37:56;;;;;;;5.47;4.97;;;2.10;99.90;;;;;;5079135;28;20707;-75
2021/01/18 02:40:33;;;;;;;4.50;4.10;;;2.10;99.90;;;;;;5083804;28;20176;-75
2021/01/18 02:43:03;;;;;;;4.77;4.33;;;2.10;99.90;;;;;;5088735;28;20189;-74
2021/01/18 02:45:37;;;;;;;5.70;4.40;;;2.10;99.90;;;;;;5087213;28;20182;-75
2021/01/18 02:48:05;;;;;;;4.60;4.20;;;2.10;99.90;;;;;;5082715;28;20227;-75
2021/01/18 02:50:32;;;;;;;4.60;4.20;;;2.10;99.90;;;;;;5094952;28;20166;-74
2021/01/18 02:52:59;;;;;;;4.67;4.17;;;2.10;99.90;;;;;;5105204;28;20167;-75
2021/01/18 02:55:24;;;;;;;5.07;4.53;;;2.10;99.90;;;;;;5096583;28;20206;-74
2021/01/18 02:57:52;;;;;;;5.10;4.60;;;2.10;99.90;;;;;;5104285;28;20196;-74
2021/01/18 03:00:40;;;;;;;6.03;3.97;;;2.10;99.90;;;;;;5100001;28;20199;-75
2021/01/18 03:03:19;;;;;;;4.80;4.00;;;2.10;99.90;;;;;;5097501;28;20245;-75
2021/01/18 03:05:57;;;;;;;5.00;4.50;;;2.10;99.90;;;;;;5103709;28;20170;-74
2021/01/18 03:08:36;;;;;;;5.37;4.93;;;2.10;99.90;;;;;;5096663;28;20224;-75
2021/01/18 03:11:13;;;;;;;4.63;4.23;;;2.10;99.90;;;;;;5101399;28;20193;-75
2021/01/18 03:13:48;;;;;;;5.47;4.97;;;2.10;99.90;;;;;;5090215;28;20226;-75
2021/01/18 03:16:19;;;;;;;5.23;4.70;;;2.10;99.90;;;;;;5102694;28;20195;-74
2021/01/18 03:18:47;;;;;;;5.43;4.77;;;2.10;99.90;;;;;;5093158;28;20210;-74
2021/01/18 03:21:13;;;;;;;5.87;4.63;;;2.10;99.90;;;;;;5104403;28;20341;-74
2021/01/18 03:23:41;;;;;;;5.80;5.30;;;2.10;99.90;;;;;;5093373;28;20191;-75
2021/01/18 03:26:06;;;;;;;5.67;4.90;;;2.10;99.90;;;;;;5095284;28;20241;-75
2021/01/18 03:28:32;;;;;;;5.37;4.87;;;2.10;99.90;;;;;;5096328;28;20192;-75
2021/01/18 03:30:57;;;;;;;5.10;4.60;;;2.10;99.90;;;;;;5104110;28;20187;-75
2021/01/18 03:33:24;;;;;;;5.13;4.67;;;2.10;99.90;;;;;;5090823;28;20211;-75
2021/01/18 03:35:51;;;;;;;6.67;5.30;;;2.00;99.90;;;;;;5090683;28;20252;-74
2021/01/18 03:38:16;;;;;;;6.57;5.30;;;2.00;99.90;;;;;;5092952;28;20235;-74
2021/01/18 03:40:42;;;;;;;6.17;5.13;;;2.00;99.90;;;;;;5097009;28;20176;-74
2021/01/18 03:43:09;;;;;;;6.13;5.17;;;2.10;99.90;;;;;;5102451;28;20171;-75
2021/01/18 03:45:37;;;;;;;7.67;5.77;;;2.10;99.90;;;;;;5101244;28;20175;-75
2021/01/18 03:48:04;;;;;;;6.10;5.50;;;2.10;99.90;;;;;;5086529;28;20197;-74
2021/01/18 03:50:30;;;;;;;6.43;5.73;;;2.10;99.90;;;;;;5083968;28;20704;-76
2021/01/18 03:52:55;;;;;;;6.67;5.83;;;2.10;99.90;;;;;;5084057;28;20208;-76
2021/01/18 03:55:22;;;;;;;8.17;5.93;;;2.10;99.90;;;;;;5086983;28;20249;-76
2021/01/18 03:57:49;;;;;;;7.00;6.30;;;2.10;99.90;;;;;;5084750;28;20190;-74
2021/01/18 04:00:16;;;;;;;7.23;5.63;;;2.10;99.90;;;;;;5095458;28;20193;-75
2021/01/18 04:02:42;;;;;;;8.33;6.10;;;2.10;99.90;;;;;;5085819;28;20172;-76
2021/01/18 04:05:08;;;;;;;7.67;6.47;;;2.10;99.90;;;;;;5106370;28;20189;-76
2021/01/18 04:07:34;;;;;;;7.20;6.60;;;2.10;99.90;;;;;;5093269;28;20187;-74
2021/01/18 04:10:00;;;;;;;7.70;6.33;;;2.10;99.90;;;;;;5095343;28;20179;-75
2021/01/18 04:12:25;;;;;;;6.93;6.23;;;2.10;99.90;;;;;;5116588;28;20181;-74
2021/01/18 04:14:51;;;;;;;7.93;6.63;;;2.10;99.90;;;;;;5112803;28;20176;-75
2021/01/18 04:17:17;;;;;;;9.37;6.63;;;2.10;99.90;;;;;;5098286;28;20213;-74
2021/01/18 04:19:43;;;;;;;10.97;6.70;;;2.10;99.90;;;;;;5107417;28;20207;-75
2021/01/18 04:22:09;;;;;;;7.40;6.57;;;2.00;99.90;;;;;;5095958;28;20218;-75
2021/01/18 04:24:35;;;;;;;7.80;6.33;;;2.00;99.90;;;;;;5092897;28;20197;-75
2021/01/18 04:27:01;;;;;;;9.93;7.23;;;2.00;99.90;;;;;;5101733;28;20254;-75
2021/01/18 04:29:27;;;;;;;11.33;7.13;;;2.00;99.90;;;;;;5094328;28;20178;-75
2021/01/18 04:31:53;;;;;;;11.93;7.73;;;2.10;99.90;;;;;;5092300;28;20179;-75
2021/01/18 04:34:19;;;;;;;7.90;6.93;;;2.10;99.90;;;;;;5091398;28;20190;-75
2021/01/18 04:36:45;;;;;;;14.00;8.23;;;2.10;99.90;;;;;;5097913;28;20225;-76
2021/01/18 04:39:19;;;;;;;11.27;7.30;;;2.10;99.90;;;;;;5091989;28;20231;-77
2021/01/18 04:41:48;;;;;;;10.37;7.03;;;2.10;99.90;;;;;;5098022;28;20173;-78
2021/01/18 04:44:16;;;;;;;13.00;7.40;;;2.10;99.90;;;;;;5098716;28;20182;-77
2021/01/18 04:46:44;;;;;;;15.50;7.50;;;2.10;99.90;;;;;;5089363;28;20277;-77
2021/01/18 04:49:12;;;;;;;10.70;8.03;;;2.00;99.90;;;;;;5089441;28;20369;-77
2021/01/18 04:51:56;;;;;;;9.07;7.40;;;2.00;99.90;;;;;;5084365;28;20186;-76
2021/01/18 04:54:38;;;;;;;12.77;7.73;;;1.90;99.90;;;;;;5086465;28;20192;-75
2021/01/18 04:57:15;;;;;;;10.00;7.70;;;2.00;99.90;;;;;;5087961;28;20785;-76
2021/01/18 04:59:46;;;;;;;10.67;7.23;;;2.00;99.90;;;;;;5088185;28;20214;-75
2021/01/18 05:02:19;;;;;;;11.90;7.03;;;2.00;99.90;;;;;;5093636;28;20655;-76
2021/01/18 05:04:47;;;;;;;9.40;7.00;;;2.00;99.90;;;;;;5086120;28;20178;-78
2021/01/18 05:07:12;;;;;;;10.23;6.83;;;2.00;99.90;;;;;;5075232;28;20240;-77
2021/01/18 05:09:49;;;;;;;11.20;6.60;;;2.00;99.90;;;;;;5075828;28;20677;-77
2021/01/18 05:12:16;;;;;;;11.13;7.20;;;1.90;99.90;;;;;;5085750;28;20198;-77
2021/01/18 05:14:42;;;;;;;12.38;8.93;;;1.90;99.90;;;;;;5090562;28;20421;-78
2021/01/18 05:17:17;;;;;;;11.23;7.97;;;2.00;99.90;;;;;;5089430;28;20281;-77
2021/01/18 05:19:44;;;;;;;13.00;6.70;;;2.00;99.90;;;;;;5084356;28;20287;-77
2021/01/18 05:22:11;;;;;;;10.23;6.53;;;1.90;99.90;;;;;;5078960;28;20216;-76
2021/01/18 05:24:38;;;;;;;11.83;6.97;;;1.90;99.90;;;;;;5076365;28;20248;-78
2021/01/18 05:27:08;;;;;;;9.77;6.90;;;2.00;99.90;;;;;;5086666;28;20195;-78
2021/01/18 05:29:36;;;;;;;13.73;6.67;;;1.90;99.90;;;;;;5085135;28;20807;-78
2021/01/18 05:32:18;;;;;;;12.37;6.33;;;1.90;99.90;;;;;;5081410;28;20213;-79
2021/01/18 05:34:45;;;;;;;10.23;6.37;;;1.80;99.90;;;;;;5076495;28;20264;-78
2021/01/18 05:37:12;;;;;;;10.00;6.50;;;1.70;99.90;;;;;;5088869;28;20208;-78
2021/01/18 05:39:40;;;;;;;10.07;6.17;;;1.70;99.90;;;;;;5076703;28;20197;-77
2021/01/18 05:42:19;;;;;;;8.43;6.67;;;1.60;99.90;;;;;;5075761;28;20194;-77
2021/01/18 05:44:45;;;;;;;7.73;5.47;;;1.60;99.90;;;;;;5081250;28;20181;-78
2021/01/18 05:47:11;;;;;;;12.03;7.00;;;1.60;99.90;;;;;;5088269;28;20315;-78
2021/01/18 05:49:49;;;;;;;8.43;6.00;;;1.60;99.90;;;;;;5077962;28;20189;-78
2021/01/18 05:52:31;;;;;;;11.67;6.33;;;1.60;99.90;;;;;;5087265;28;20177;-78
2021/01/18 05:55:25;;;;;;;9.23;6.53;;;1.60;99.90;;;;;;5082913;28;20203;-78
2021/01/18 05:58:02;;;;;;;8.57;6.60;;;1.50;99.90;;;;;;5088105;28;20198;-78
2021/01/18 06:00:37;;;;;;;9.17;6.83;;;1.50;99.90;;;;;;5084510;28;20183;-78
2021/01/18 06:03:07;;;;;;;10.83;6.40;;;1.50;99.90;;;;;;5078648;28;20177;-78
2021/01/18 06:05:35;;;;;;;9.70;7.00;;;1.50;99.90;;;;;;5081333;28;20793;-78
2021/01/18 06:08:27;;;;;;;9.27;6.10;;;1.40;99.90;;;;;;5082870;28;20228;-78
2021/01/18 06:11:03;;;;;;;11.77;7.13;;;1.40;99.90;;;;;;5081588;28;20235;-78
2021/01/18 06:13:33;;;;;;;11.17;6.80;;;1.50;99.90;;;;;;5088213;28;20181;-76
2021/01/18 06:16:02;;;;;;;12.47;6.70;;;1.50;99.90;;;;;;5077110;28;20776;-77
2021/01/18 06:18:32;;;;;;;8.00;7.07;;;1.50;99.90;;;;;;5080235;28;20206;-75
2021/01/18 06:20:58;;;;;;;10.70;6.43;;;1.60;99.90;;;;;;5083105;28;20186;-76
2021/01/18 06:23:24;;;;;;;10.17;7.27;;;1.60;99.90;;;;;;5080457;28;20166;-75
2021/01/18 06:25:52;;;;;;;13.03;7.40;;;1.60;99.90;;;;;;5082468;28;20178;-78
2021/01/18 06:28:32;;;;;;;16.60;7.00;;;1.60;99.90;;;;;;5081383;28;20284;-77
2021/01/18 06:31:02;;;;;;;10.43;6.03;;;1.60;99.90;;;;;;5084619;28;20181;-77
2021/01/18 06:33:41;;;;;;;11.03;6.70;;;1.60;99.90;;;;;;5079220;28;20193;-77
2021/01/18 06:36:10;;;;;;;15.80;6.97;;;1.60;99.90;;;;;;5077146;28;20649;-77
2021/01/18 06:38:38;;;;;;;11.70;6.50;;;1.60;99.90;;;;;;5077196;28;20214;-77
2021/01/18 06:41:06;;;;;;;10.50;6.67;;;1.60;99.90;;;;;;5075010;28;20178;-77
2021/01/18 06:43:32;;;;;;;10.77;6.47;;;1.60;99.90;;;;;;5074982;28;20176;-77
2021/01/18 06:45:58;;;;;;;8.73;5.87;;;1.60;99.90;;;;;;5076369;28;20222;-77
2021/01/18 06:48:24;;;;;;;10.40;5.70;;;1.70;99.90;;;;;;5079595;28;20214;-77
2021/01/18 06:50:50;;;;;;;7.10;5.37;;;1.70;99.90;;;;;;5076302;28;20185;-77
2021/01/18 06:53:25;;;;;;;9.53;6.63;;;1.70;99.90;;;;;;5079432;28;20595;-77
2021/01/18 06:56:21;;;;;;;11.47;5.73;;;1.70;99.90;;;;;;5074748;28;20188;-77
2021/01/18 06:59:02;;;;;;;8.70;5.97;;;1.70;99.90;;;;;;5073903;28;20218;-77
2021/01/18 07:01:38;;;;;;;7.80;5.90;;;1.70;99.90;;;;;;5079231;28;20241;-76
2021/01/18 07:04:05;;;;;;;9.10;5.87;;;1.70;99.90;;;;;;5075612;28;20264;-77
2021/01/18 07:06:32;;;;;;;9.07;6.10;;;1.70;99.90;;;;;;5075055;28;20203;-77
2021/01/18 07:09:01;;;;;;;12.17;6.23;;;1.70;99.90;;;;;;5083087;28;20229;-77
2021/01/18 07:11:27;;;;;;;9.73;6.30;;;1.80;99.90;;;;;;5085036;28;20189;-77
2021/01/18 07:13:53;;;;;;;11.73;6.60;;;1.80;99.90;;;;;;5078734;28;21056;-77
2021/01/18 07:16:20;;;;;;;7.33;5.57;;;1.80;99.90;;;;;;5080012;28;20187;-74
2021/01/18 07:18:57;;;;;;;9.10;6.27;;;1.90;99.90;;;;;;5079200;28;20613;-75
2021/01/18 07:21:29;;;;;;;9.00;5.80;;;1.80;99.90;;;;;;5076309;28;20183;-77
2021/01/18 07:23:59;;;;;;;9.97;7.23;;;1.90;99.90;;;;;;5075885;28;20817;-75
2021/01/18 07:26:34;;;;;;;10.17;7.13;;;1.90;99.90;;;;;;5078367;28;20185;-75
2021/01/18 07:29:06;;;;;;;10.83;6.43;;;1.90;99.90;;;;;;5078539;28;20190;-77
2021/01/18 07:31:35;;;;;;;13.77;7.07;;;1.90;99.90;;;;;;5078796;28;20207;-76
2021/01/18 07:34:01;;;;;;;8.63;5.83;;;1.90;99.90;;;;;;5079520;28;20179;-75
2021/01/18 07:36:29;;;;;;;6.90;5.33;;;2.00;99.90;;;;;;5081234;28;20184;-76
2021/01/18 07:38:55;;;;;;;10.27;5.63;;;2.00;99.90;;;;;;5081647;28;20229;-76
2021/01/18 07:41:29;;;;;;;8.13;6.03;;;2.00;99.90;;;;;;5085424;28;20179;-76
2021/01/18 07:43:56;;;;;;;6.83;5.30;;;2.10;99.90;;;;;;5078820;28;20203;-75
2021/01/18 07:46:30;;;;;;;9.80;6.07;;;2.10;99.90;;;;;;5082078;28;20173;-77
2021/01/18 07:49:17;;;;;;;8.40;5.50;;;2.20;99.90;;;;;;5084527;28;20178;-76
2021/01/18 07:51:42;;;;;;;10.30;7.40;;;2.20;99.90;;;;;;5090354;28;20185;-76
2021/01/18 07:54:31;;;;;;;11.93;6.27;;;2.30;99.90;;;;;;5080780;28;20187;-78
2021/01/18 07:57:23;;;;;;;11.63;5.53;;;2.30;99.90;;;;;;5080613;28;20210;-76
2021/01/18 07:59:48;;;;;;;9.53;5.80;;;2.40;99.90;;;;;;5078873;28;20683;-77
2021/01/18 08:02:23;;;;;;;7.90;5.83;;;2.40;99.90;;;;;;5083268;28;20210;-77
2021/01/18 08:04:49;;;;;;;10.33;6.53;;;2.40;99.80;;;;;;5078219;28;20205;-77
2021/01/18 08:07:15;;;;;;;9.67;5.97;;;2.50;99.90;;;;;;5085533;28;20203;-78
2021/01/18 08:09:41;;;;;;;10.93;6.43;;;2.50;99.70;;;;;;5077485;28;20215;-77
2021/01/18 08:12:31;;;;;;;11.03;5.43;;;2.50;99.40;;;;;;5076131;28;20195;-77
2021/01/18 08:15:10;;;;;;;11.03;5.83;;;2.50;99.60;;;;;;5084367;28;20264;-77
2021/01/18 08:17:37;;;;;;;8.67;5.10;;;2.50;99.50;;;;;;5083697;28;20199;-78
2021/01/18 08:20:22;;;;;;;6.73;5.23;;;2.60;99.40;;;;;;5084549;28;20210;-76
2021/01/18 08:22:48;;;;;;;10.57;5.50;;;2.60;99.30;;;;;;5076637;28;20272;-77
2021/01/18 08:25:14;;;;;;;6.20;5.10;;;2.60;99.20;;;;;;5081237;28;20744;-77
2021/01/18 08:27:46;;;;;;;7.35;4.85;;;2.70;99.00;;;;;;5087807;28;20465;-78
2021/01/18 08:30:33;;;;;;;10.43;7.30;;;2.70;99.30;;;;;;5082743;28;20184;-77
2021/01/18 08:33:01;;;;;;;13.57;8.73;;;2.70;99.00;;;;;;5078826;28;20623;-78
2021/01/18 08:35:30;;;;;;;20.50;13.13;;;2.80;98.90;;;;;;5085133;28;20210;-78
2021/01/18 08:38:07;;;;;;;8.93;6.33;;;2.90;98.70;;;;;;5086139;28;20198;-78
2021/01/18 08:40:46;;;;;;;8.40;5.53;;;3.00;98.30;;;;;;5078423;28;20689;-77
2021/01/18 08:43:13;;;;;;;6.70;4.70;;;3.00;98.40;;;;;;5076129;28;20208;-76
2021/01/18 08:45:41;;;;;;;5.30;4.07;;;3.00;98.20;;;;;;5077142;28;20182;-77
2021/01/18 08:48:09;;;;;;;8.73;4.73;;;3.10;98.40;;;;;;5078914;28;20219;-77
2021/01/18 08:50:46;;;;;;;6.50;5.47;;;3.10;98.10;;;;;;5083549;28;20211;-77
2021/01/18 08:53:30;;;;;;;6.47;4.67;;;3.10;98.20;;;;;;5081597;28;20185;-77
2021/01/18 08:55:58;;;;;;;7.00;4.90;;;3.10;97.80;;;;;;5081009;28;20184;-77
2021/01/18 08:58:43;;;;;;;10.23;5.73;;;3.20;98.00;;;;;;5072568;28;20678;-78
2021/01/18 09:01:19;;;;;;;8.47;5.27;;;3.20;97.90;;;;;;5085878;28;20235;-75
2021/01/18 09:03:46;;;;;;;10.57;5.47;;;3.30;97.60;;;;;;5086016;28;20202;-75
2021/01/18 09:06:12;;;;;;;6.40;5.27;;;3.30;97.50;;;;;;5081567;28;20174;-75
2021/01/18 09:08:40;;;;;;;9.33;5.10;;;3.30;97.50;;;;;;5083455;28;20174;-76
2021/01/18 09:11:08;;;;;;;6.33;4.80;;;3.30;97.50;;;;;;5082033;28;20181;-76
2021/01/18 09:13:36;;;;;;;11.37;5.93;;;3.30;97.70;;;;;;5074950;28;20237;-77
2021/01/18 09:16:07;;;;;;;8.83;5.80;;;3.40;97.50;;;;;;5084697;28;20188;-76
2021/01/18 09:18:34;;;;;;;7.63;5.53;;;3.40;97.60;;;;;;5095863;28;20229;-75
2021/01/18 09:21:05;;;;;;;7.90;5.40;;;3.50;97.70;;;;;;5087220;28;20208;-75
2021/01/18 09:23:31;;;;;;;10.10;7.77;;;3.50;97.50;;;;;;5075733;28;20183;-75
2021/01/18 09:26:01;;;;;;;12.27;7.03;;;3.50;97.40;;;;;;5081278;28;20177;-75
2021/01/18 09:28:27;;;;;;;7.03;5.70;;;3.50;97.40;;;;;;5081455;28;20230;-75
2021/01/18 09:30:52;;;;;;;8.17;5.77;;;3.50;97.40;;;;;;5088534;28;20182;-77
2021/01/18 09:33:18;;;;;;;7.77;4.90;;;3.50;97.80;;;;;;5087514;28;20256;-77
2021/01/18 09:35:45;;;;;;;9.20;5.00;;;3.40;97.80;;;;;;5079783;28;20174;-77
2021/01/18 09:38:14;;;;;;;8.43;5.57;;;3.30;98.00;;;;;;5073932;28;20223;-76
2021/01/18 09:40:43;;;;;;;6.97;5.50;;;3.30;98.20;;;;;;5080384;28;20192;-77
2021/01/18 09:43:11;;;;;;;8.23;5.70;;;3.30;98.20;;;;;;5085974;28;20182;-77
2021/01/18 09:45:38;;;;;;;14.50;5.70;;;3.30;98.20;;;;;;5078977;28;20170;-77
2021/01/18 09:48:06;;;;;;;8.00;5.07;;;3.50;98.10;;;;;;5074371;28;20632;-78
2021/01/18 09:50:33;;;;;;;10.60;5.87;;;3.50;97.70;;;;;;5076906;28;20268;-77
2021/01/18 09:53:03;;;;;;;9.27;6.40;;;3.40;98.20;;;;;;5076626;28;20263;-77
2021/01/18 09:55:36;;;;;;;8.63;6.80;;;3.40;98.60;;;;;;5074065;28;20479;-77
2021/01/18 09:58:14;;;;;;;9.53;6.47;;;3.40;98.70;;;;;;5082978;28;20488;-79
2021/01/18 10:00:42;;;;;;;9.40;6.70;;;3.60;98.70;;;;;;5077376;28;20225;-77
2021/01/18 10:03:26;;;;;;;5.97;5.20;;;3.70;98.50;;;;;;5081280;28;20187;-77
2021/01/18 10:06:12;;;;;;;7.57;5.33;;;3.80;97.80;;;;;;5079654;28;20179;-77
2021/01/18 10:08:40;;;;;;;7.50;5.13;;;3.80;97.60;;;;;;5079676;28;20200;-77
2021/01/18 10:11:06;;;;;;;7.83;5.40;;;3.80;97.70;;;;;;5079839;28;20498;-76
2021/01/18 10:13:32;;;;;;;7.23;5.10;;;3.90;97.40;;;;;;5080966;28;20207;-77
2021/01/18 10:16:12;;;;;;;5.90;5.00;;;4.00;97.40;;;;;;5080191;28;20302;-77
2021/01/18 10:18:49;;;;;;;8.27;5.20;;;4.10;96.70;;;;;;5081745;28;20207;-76
2021/01/18 10:21:15;;;;;;;8.70;5.80;;;4.10;96.40;;;;;;5085649;28;20194;-77
2021/01/18 10:23:46;;;;;;;5.70;5.20;;;4.00;96.60;;;;;;5079738;28;20195;-77
2021/01/18 10:26:19;;;;;;;7.17;5.47;;;4.10;96.80;;;;;;5083884;28;20689;-75
2021/01/18 10:28:58;;;;;;;7.27;4.97;;;4.20;96.60;;;;;;5076538;28;20193;-75
2021/01/18 10:31:31;;;;;;;6.27;5.47;;;4.20;96.50;;;;;;5076862;28;20698;-77
2021/01/18 10:34:28;;;;;;;8.20;5.90;;;4.20;96.40;;;;;;5084601;28;20564;-75
2021/01/18 10:36:55;;;;;;;8.37;5.37;;;4.10;96.40;;;;;;5084371;28;20291;-78
2021/01/18 10:39:23;;;;;;;8.47;5.93;;;4.10;96.60;;;;;;5084244;28;20200;-78
2021/01/18 10:41:53;;;;;;;8.13;6.57;;;4.20;96.40;;;;;;5093005;28;20187;-77
2021/01/18 10:44:21;;;;;;;8.90;5.57;;;4.20;96.30;;;;;;5077843;28;20207;-77
2021/01/18 10:46:50;;;;;;;6.93;5.63;;;4.30;96.10;;;;;;5075570;28;20206;-77
2021/01/18 10:49:26;;;;;;;8.07;6.40;;;4.20;96.00;;;;;;5083735;28;20706;-77
2021/01/18 10:52:02;;;;;;;7.63;5.73;;;4.30;96.40;;;;;;5084139;28;20829;-75
2021/01/18 10:54:28;;;;;;;5.57;4.80;;;4.30;96.00;;;;;;5092667;28;20182;-76
2021/01/18 10:56:56;;;;;;;7.30;5.77;;;4.40;96.00;;;;;;5096848;28;20211;-76
2021/01/18 10:59:22;;;;;;;7.73;5.30;;;4.50;95.50;;;;;;5092854;28;20203;-76
2021/01/18 11:02:02;;;;;;;6.63;5.23;;;4.50;95.50;;;;;;5099533;28;20210;-76
2021/01/18 11:04:29;;;;;;;7.67;5.07;;;4.90;95.10;;;;;;5092503;28;20284;-76
2021/01/18 11:06:59;;;;;;;6.13;5.00;;;4.90;94.30;;;;;;5100320;28;20220;-76
2021/01/18 11:09:33;;;;;;;6.07;5.13;;;4.90;94.20;;;;;;5095450;28;20193;-76
2021/01/18 11:12:03;;;;;;;5.40;4.83;;;4.90;94.00;;;;;;5095454;28;20177;-76
2021/01/18 11:14:31;;;;;;;6.27;4.90;;;5.00;94.30;;;;;;5096316;28;20178;-76
2021/01/18 11:16:58;;;;;;;5.40;4.90;;;4.80;94.20;;;;;;5073678;28;20213;-76
2021/01/18 11:19:24;;;;;;;8.17;4.37;;;4.90;94.50;;;;;;5075555;28;20198;-76
2021/01/18 11:21:49;;;;;;;7.57;4.67;;;4.80;94.30;;;;;;5081719;28;20552;-76
2021/01/18 11:24:15;;;;;;;6.07;5.13;;;4.80;94.60;;;;;;5075183;28;20181;-77
2021/01/18 11:26:41;;;;;;;5.60;4.40;;;4.60;94.80;;;;;;5086687;28;20309;-76
2021/01/18 11:29:07;;;;;;;5.07;4.57;;;4.60;95.20;;;;;;5078555;28;20187;-78
2021/01/18 11:31:32;;;;;;;5.70;5.00;;;4.50;95.10;;;;;;5073323;28;20676;-76
2021/01/18 11:33:58;;;;;;;8.10;5.07;;;4.40;95.80;;;;;;5076663;28;20682;-78
2021/01/18 11:36:24;;;;;;;9.43;5.73;;;4.60;95.30;;;;;;5075023;28;20179;-76
2021/01/18 11:38:50;;;;;;;5.37;4.77;;;4.70;94.90;;;;;;5077782;28;20748;-77
2021/01/18 11:41:16;;;;;;;6.10;5.27;;;4.80;94.80;;;;;;5081858;28;20182;-77
2021/01/18 11:43:42;;;;;;;5.43;4.47;;;4.80;95.10;;;;;;5077108;28;20178;-76
2021/01/18 11:46:07;;;;;;;6.97;5.10;;;5.10;94.60;;;;;;5081510;28;20273;-77
2021/01/18 11:48:33;;;;;;;5.33;4.80;;;5.20;94.10;;;;;;5077633;28;20698;-76
2021/01/18 11:50:58;;;;;;;7.33;4.73;;;5.20;94.30;;;;;;5077708;28;20182;-77
2021/01/18 11:53:24;;;;;;;6.70;5.17;;;5.10;94.20;;;;;;5075583;28;20575;-77
2021/01/18 11:55:50;;;;;;;7.50;4.63;;;5.20;94.00;;;;;;5076018;28;20182;-77
2021/01/18 11:58:16;;;;;;;6.20;5.30;;;5.20;94.10;;;;;;5077674;28;20208;-77
2021/01/18 12:00:42;;;;;;;6.03;4.73;;;5.10;94.50;;;;;;5081339;28;20252;-77
2021/01/18 12:03:07;;;;;;;5.37;4.50;;;5.20;94.20;;;;;;5082527;28;20235;-77
2021/01/18 12:05:33;;;;;;;6.43;4.47;;;5.30;93.80;;;;;;5075148;28;20181;-77
2021/01/18 12:08:02;;;;;;;5.23;4.53;;;5.50;93.00;;;;;;5083033;28;20370;-76
2021/01/18 12:10:28;;;;;;;7.63;5.50;;;5.50;93.00;;;;;;5082440;28;20702;-76
2021/01/18 12:12:54;;;;;;;6.60;4.83;;;5.50;92.70;;;;;;5082584;28;20632;-76
2021/01/18 12:15:20;;;;;;;6.10;4.70;;;5.40;93.50;;;;;;5086211;28;20318;-77
2021/01/18 12:17:47;;;;;;;9.53;5.60;;;5.40;93.20;;;;;;5087777;28;20209;-76
2021/01/18 12:20:16;;;;;;;6.27;5.67;;;5.30;93.30;;;;;;5091482;28;20215;-77
2021/01/18 12:22:42;;;;;;;7.33;4.90;;;5.40;93.60;;;;;;5078589;28;20174;-77
2021/01/18 12:25:08;;;;;;;6.63;5.27;;;5.20;93.50;;;;;;5077475;28;20179;-77
2021/01/18 12:27:34;;;;;;;6.07;5.47;;;5.10;94.10;;;;;;5075527;28;20217;-77
2021/01/18 12:30:00;;;;;;;6.83;6.17;;;5.00;94.30;;;;;;5082315;28;20189;-76
2021/01/18 12:32:26;;;;;;;6.67;6.07;;;4.80;95.10;;;;;;5083451;28;20195;-76
2021/01/18 12:34:52;;;;;;;7.30;6.60;;;4.80;95.00;;;;;;5082568;28;20666;-75
2021/01/18 12:37:17;;;;;;;6.83;4.90;;;5.00;94.90;;;;;;5077389;28;20240;-76
2021/01/18 12:39:46;;;;;;;7.90;5.60;;;5.30;93.90;;;;;;5081036;28;20296;-78
2021/01/18 12:42:11;;;;;;;6.77;5.00;;;5.50;93.50;;;;;;5081711;28;20188;-77
2021/01/18 12:44:37;;;;;;;5.57;5.07;;;5.50;93.40;;;;;;5079533;28;20700;-77
2021/01/18 12:47:04;;;;;;;6.73;5.27;;;5.30;93.60;;;;;;5084575;28;20210;-77
2021/01/18 12:49:30;;;;;;;6.37;5.23;;;5.20;94.00;;;;;;5084422;28;20211;-77
2021/01/18 12:51:56;;;;;;;8.20;5.43;;;5.20;94.20;;;;;;5082947;28;20212;-78
2021/01/18 12:54:21;;;;;;;6.90;4.73;;;5.30;93.60;;;;;;5079994;28;20720;-76
2021/01/18 12:56:51;;;;;;;7.67;5.53;;;5.30;93.00;;;;;;5086748;28;20264;-76
2021/01/18 12:59:17;;;;;;;10.77;5.03;;;5.30;93.40;;;;;;5083136;28;20199;-79
2021/01/18 13:01:43;;;;;;;7.03;5.23;;;5.20;93.10;;;;;;5082490;28;20183;-78
2021/01/18 13:04:08;;;;;;;5.97;4.60;;;5.30;93.50;;;;;;5079650;28;20270;-78
2021/01/18 13:06:37;;;;;;;8.03;5.33;;;5.40;93.20;;;;;;5075728;28;20896;-78
2021/01/18 13:09:07;;;;;;;6.83;5.60;;;5.70;92.80;;;;;;5081956;28;20190;-76
2021/01/18 13:11:33;;;;;;;5.97;4.97;;;5.80;92.10;;;;;;5077363;28;20194;-78